sensor_id;sensor_type;location;lat;lon;timestamp;P1;durP1;ratioP1;P2;durP2;ratioP2
68995;SDS011;56056;48.990;12.146;2023-10-19T00:00:32;1420.25;;;999.90;;
68995;SDS011;56056;48.990;12.146;2023-10-19T00:03:06;1358.30;;;999.90;;
68995;SDS011;56056;48.990;12.146;2023-10-19T00:05:33;1436.10;;;999.90;;
68995;SDS011;56056;48.990;12.146;2023-10-19T00:08:00;1347.75;;;999.90;;
68995;SDS011;56056;48.990;12.146;2023-10-19T00:10:31;1164.18;;;964.35;;
68995;SDS011;56056;48.990;12.146;2023-10-19T00:13:03;1379.20;;;999.90;;
68995;SDS011;56056;48.990;12.146;2023-10-19T00:15:31;1287.10;;;992.58;;
68995;SDS011;56056;48.990;12.146;2023-10-19T00:17:59;1340.97;;;994.70;;
68995;SDS011;56056;48.990;12.146;2023-10-19T00:20:31;1304.30;;;975.35;;
68995;SDS011;56056;48.990;12.146;2023-10-19T00:23:14;1364.15;;;999.90;;
68995;SDS011;56056;48.990;12.146;2023-10-19T00:25:54;1300.07;;;999.90;;
68995;SDS011;56056;48.990;12.146;2023-10-19T00:28:21;1463.28;;;999.90;;
68995;SDS011;56056;48.990;12.146;2023-10-19T00:30:53;1526.93;;;999.90;;
68995;SDS011;56056;48.990;12.146;2023-10-19T00:33:27;1687.78;;;999.90;;
68995;SDS011;56056;48.990;12.146;2023-10-19T00:35:55;1659.85;;;999.90;;
68995;SDS011;56056;48.990;12.146;2023-10-19T00:38:33;1662.72;;;999.90;;
68995;SDS011;56056;48.990;12.146;2023-10-19T00:41:02;1684.15;;;999.90;;
68995;SDS011;56056;48.990;12.146;2023-10-19T00:43:40;1661.95;;;999.90;;
68995;SDS011;56056;48.990;12.146;2023-10-19T00:46:10;1899.18;;;999.90;;
68995;SDS011;56056;48.990;12.146;2023-10-19T00:48:47;1709.07;;;999.90;;
68995;SDS011;56056;48.990;12.146;2023-10-19T00:51:18;1700.47;;;999.90;;
68995;SDS011;56056;48.990;12.146;2023-10-19T00:53:55;1952.05;;;999.90;;
68995;SDS011;56056;48.990;12.146;2023-10-19T00:56:24;1811.32;;;999.90;;
68995;SDS011;56056;48.990;12.146;2023-10-19T00:58:57;1828.07;;;999.90;;
68995;SDS011;56056;48.990;12.146;2023-10-19T01:09:03;1947.03;;;999.90;;
68995;SDS011;56056;48.990;12.146;2023-10-19T01:11:29;1883.95;;;999.90;;
68995;SDS011;56056;48.990;12.146;2023-10-19T01:13:56;1750.93;;;999.90;;
68995;SDS011;56056;48.990;12.146;2023-10-19T01:16:22;1791.18;;;999.90;;
68995;SDS011;56056;48.990;12.146;2023-10-19T01:18:49;1932.38;;;999.90;;
68995;SDS011;56056;48.990;12.146;2023-10-19T01:21:19;1804.43;;;999.90;;
68995;SDS011;56056;48.990;12.146;2023-10-19T01:23:50;1803.63;;;999.90;;
68995;SDS011;56056;48.990;12.146;2023-10-19T01:26:17;1755.40;;;999.90;;
68995;SDS011;56056;48.990;12.146;2023-10-19T01:28:47;1878.90;;;999.90;;
68995;SDS011;56056;48.990;12.146;2023-10-19T01:31:14;1862.15;;;999.90;;
68995;SDS011;56056;48.990;12.146;2023-10-19T01:33:53;1755.35;;;999.90;;
68995;SDS011;56056;48.990;12.146;2023-10-19T01:36:21;1766.53;;;999.90;;
68995;SDS011;56056;48.990;12.146;2023-10-19T01:38:46;1752.93;;;999.90;;
68995;SDS011;56056;48.990;12.146;2023-10-19T01:41:14;1809.47;;;999.90;;
68995;SDS011;56056;48.990;12.146;2023-10-19T01:43:43;1854.65;;;999.90;;
68995;SDS011;56056;48.990;12.146;2023-10-19T01:46:12;1781.97;;;999.90;;
68995;SDS011;56056;48.990;12.146;2023-10-19T01:48:51;1877.85;;;999.90;;
68995;SDS011;56056;48.990;12.146;2023-10-19T01:51:20;1729.50;;;999.90;;
68995;SDS011;56056;48.990;12.146;2023-10-19T01:53:48;1676.03;;;999.90;;
68995;SDS011;56056;48.990;12.146;2023-10-19T01:56:16;1779.85;;;999.90;;
68995;SDS011;56056;48.990;12.146;2023-10-19T01:58:44;1616.00;;;999.90;;
68995;SDS011;56056;48.990;12.146;2023-10-19T02:01:15;1667.30;;;999.90;;
68995;SDS011;56056;48.990;12.146;2023-10-19T02:03:53;1707.72;;;999.90;;
68995;SDS011;56056;48.990;12.146;2023-10-19T02:06:23;1665.85;;;999.90;;
68995;SDS011;56056;48.990;12.146;2023-10-19T02:09:00;1662.50;;;999.90;;
68995;SDS011;56056;48.990;12.146;2023-10-19T02:11:35;1561.88;;;999.90;;
68995;SDS011;56056;48.990;12.146;2023-10-19T02:14:07;1721.25;;;999.90;;
68995;SDS011;56056;48.990;12.146;2023-10-19T02:16:44;1774.80;;;999.90;;
68995;SDS011;56056;48.990;12.146;2023-10-19T02:19:16;1682.65;;;999.90;;
68995;SDS011;56056;48.990;12.146;2023-10-19T02:21:42;1794.65;;;999.90;;
68995;SDS011;56056;48.990;12.146;2023-10-19T02:24:09;1784.22;;;999.90;;
68995;SDS011;56056;48.990;12.146;2023-10-19T02:26:43;1665.15;;;999.90;;
68995;SDS011;56056;48.990;12.146;2023-10-19T02:29:12;1642.00;;;999.90;;
68995;SDS011;56056;48.990;12.146;2023-10-19T02:31:39;1498.25;;;999.90;;
68995;SDS011;56056;48.990;12.146;2023-10-19T02:34:06;1570.22;;;999.90;;
68995;SDS011;56056;48.990;12.146;2023-10-19T02:36:35;1664.03;;;999.90;;
68995;SDS011;56056;48.990;12.146;2023-10-19T02:39:02;1507.57;;;999.90;;
68995;SDS011;56056;48.990;12.146;2023-10-19T02:41:33;1672.57;;;999.90;;
68995;SDS011;56056;48.990;12.146;2023-10-19T02:44:07;1716.28;;;999.90;;
68995;SDS011;56056;48.990;12.146;2023-10-19T02:46:52;1665.03;;;999.90;;
68995;SDS011;56056;48.990;12.146;2023-10-19T02:49:24;1704.95;;;999.90;;
68995;SDS011;56056;48.990;12.146;2023-10-19T02:51:51;1664.25;;;999.90;;
68995;SDS011;56056;48.990;12.146;2023-10-19T02:54:19;1713.78;;;999.90;;
68995;SDS011;56056;48.990;12.146;2023-10-19T02:56:50;1707.47;;;999.90;;
68995;SDS011;56056;48.990;12.146;2023-10-19T02:59:19;1693.55;;;999.90;;
68995;SDS011;56056;48.990;12.146;2023-10-19T03:01:50;1686.80;;;999.90;;
68995;SDS011;56056;48.990;12.146;2023-10-19T03:04:17;1597.18;;;999.90;;
68995;SDS011;56056;48.990;12.146;2023-10-19T03:06:43;1685.68;;;999.90;;
68995;SDS011;56056;48.990;12.146;2023-10-19T03:09:09;1558.55;;;999.90;;
68995;SDS011;56056;48.990;12.146;2023-10-19T03:11:47;1626.80;;;999.90;;
68995;SDS011;56056;48.990;12.146;2023-10-19T03:14:18;1596.43;;;999.90;;
68995;SDS011;56056;48.990;12.146;2023-10-19T03:16:45;1666.35;;;999.90;;
68995;SDS011;56056;48.990;12.146;2023-10-19T03:19:12;1649.15;;;999.90;;
68995;SDS011;56056;48.990;12.146;2023-10-19T03:21:39;1655.43;;;999.90;;
68995;SDS011;56056;48.990;12.146;2023-10-19T03:24:07;1562.28;;;999.90;;
68995;SDS011;56056;48.990;12.146;2023-10-19T03:27:00;1674.40;;;999.90;;
68995;SDS011;56056;48.990;12.146;2023-10-19T03:29:28;1609.00;;;999.90;;
68995;SDS011;56056;48.990;12.146;2023-10-19T03:32:03;1523.97;;;999.90;;
68995;SDS011;56056;48.990;12.146;2023-10-19T03:34:30;1565.05;;;999.90;;
68995;SDS011;56056;48.990;12.146;2023-10-19T03:36:57;1545.35;;;999.90;;
68995;SDS011;56056;48.990;12.146;2023-10-19T03:39:30;1500.43;;;999.90;;
68995;SDS011;56056;48.990;12.146;2023-10-19T03:41:58;1445.43;;;999.90;;
68995;SDS011;56056;48.990;12.146;2023-10-19T03:44:24;1582.72;;;999.90;;
68995;SDS011;56056;48.990;12.146;2023-10-19T03:46:52;1635.70;;;999.90;;
68995;SDS011;56056;48.990;12.146;2023-10-19T03:49:18;1731.28;;;999.90;;
68995;SDS011;56056;48.990;12.146;2023-10-19T03:51:45;1817.82;;;999.90;;
68995;SDS011;56056;48.990;12.146;2023-10-19T03:54:28;1754.40;;;999.90;;
68995;SDS011;56056;48.990;12.146;2023-10-19T03:56:57;1779.85;;;999.90;;
68995;SDS011;56056;48.990;12.146;2023-10-19T03:59:29;1820.55;;;999.90;;
68995;SDS011;56056;48.990;12.146;2023-10-19T04:02:00;1787.15;;;999.90;;
68995;SDS011;56056;48.990;12.146;2023-10-19T04:04:32;1812.78;;;999.90;;
68995;SDS011;56056;48.990;12.146;2023-10-19T04:06:58;1813.10;;;999.90;;
68995;SDS011;56056;48.990;12.146;2023-10-19T04:09:24;1688.05;;;999.90;;
68995;SDS011;56056;48.990;12.146;2023-10-19T04:11:54;1822.75;;;999.90;;
68995;SDS011;56056;48.990;12.146;2023-10-19T04:14:21;1873.05;;;999.90;;
68995;SDS011;56056;48.990;12.146;2023-10-19T04:16:47;1825.00;;;999.90;;
68995;SDS011;56056;48.990;12.146;2023-10-19T04:19:15;1828.72;;;999.90;;
68995;SDS011;56056;48.990;12.146;2023-10-19T04:21:41;1849.30;;;999.90;;
68995;SDS011;56056;48.990;12.146;2023-10-19T04:24:12;1795.97;;;999.90;;
68995;SDS011;56056;48.990;12.146;2023-10-19T04:26:38;1771.15;;;999.90;;
68995;SDS011;56056;48.990;12.146;2023-10-19T04:29:04;1935.97;;;999.90;;
68995;SDS011;56056;48.990;12.146;2023-10-19T04:31:38;1771.10;;;999.90;;
68995;SDS011;56056;48.990;12.146;2023-10-19T04:34:21;1881.88;;;999.90;;
68995;SDS011;56056;48.990;12.146;2023-10-19T04:36:47;1858.93;;;999.90;;
68995;SDS011;56056;48.990;12.146;2023-10-19T04:39:13;1628.95;;;999.90;;
68995;SDS011;56056;48.990;12.146;2023-10-19T04:41:39;1742.40;;;999.90;;
68995;SDS011;56056;48.990;12.146;2023-10-19T04:44:05;1716.07;;;999.90;;
68995;SDS011;56056;48.990;12.146;2023-10-19T04:46:33;1883.00;;;999.90;;
68995;SDS011;56056;48.990;12.146;2023-10-19T04:48:59;1715.18;;;999.90;;
68995;SDS011;56056;48.990;12.146;2023-10-19T04:51:27;1778.53;;;999.90;;
68995;SDS011;56056;48.990;12.146;2023-10-19T04:53:53;1695.18;;;999.90;;
68995;SDS011;56056;48.990;12.146;2023-10-19T04:56:20;1821.32;;;999.90;;
68995;SDS011;56056;48.990;12.146;2023-10-19T04:58:46;1858.40;;;999.90;;
68995;SDS011;56056;48.990;12.146;2023-10-19T05:01:12;1824.93;;;999.90;;
68995;SDS011;56056;48.990;12.146;2023-10-19T05:03:40;1910.68;;;999.90;;
68995;SDS011;56056;48.990;12.146;2023-10-19T05:06:06;1836.13;;;999.90;;
68995;SDS011;56056;48.990;12.146;2023-10-19T05:08:34;1890.32;;;999.90;;
68995;SDS011;56056;48.990;12.146;2023-10-19T05:11:00;1777.70;;;999.90;;
68995;SDS011;56056;48.990;12.146;2023-10-19T05:13:26;1873.50;;;999.90;;
68995;SDS011;56056;48.990;12.146;2023-10-19T05:15:52;1791.50;;;999.90;;
68995;SDS011;56056;48.990;12.146;2023-10-19T05:18:19;1799.88;;;999.90;;
68995;SDS011;56056;48.990;12.146;2023-10-19T05:20:46;1733.35;;;999.90;;
68995;SDS011;56056;48.990;12.146;2023-10-19T05:23:12;1813.30;;;999.90;;
68995;SDS011;56056;48.990;12.146;2023-10-19T05:25:39;1866.20;;;999.90;;
68995;SDS011;56056;48.990;12.146;2023-10-19T05:28:05;1731.43;;;999.90;;
68995;SDS011;56056;48.990;12.146;2023-10-19T05:30:32;1839.72;;;999.90;;
68995;SDS011;56056;48.990;12.146;2023-10-19T05:32:59;1832.18;;;999.90;;
68995;SDS011;56056;48.990;12.146;2023-10-19T05:35:26;1683.22;;;999.90;;
68995;SDS011;56056;48.990;12.146;2023-10-19T05:37:54;1595.05;;;999.90;;
68995;SDS011;56056;48.990;12.146;2023-10-19T05:40:23;1700.00;;;999.90;;
68995;SDS011;56056;48.990;12.146;2023-10-19T05:42:55;1615.95;;;999.90;;
68995;SDS011;56056;48.990;12.146;2023-10-19T05:45:22;1516.43;;;999.90;;
68995;SDS011;56056;48.990;12.146;2023-10-19T05:47:49;1602.88;;;999.90;;
68995;SDS011;56056;48.990;12.146;2023-10-19T05:50:14;1635.10;;;999.90;;
68995;SDS011;56056;48.990;12.146;2023-10-19T05:52:40;1580.38;;;999.90;;
68995;SDS011;56056;48.990;12.146;2023-10-19T05:55:07;1687.03;;;999.90;;
68995;SDS011;56056;48.990;12.146;2023-10-19T05:57:34;1691.75;;;999.90;;
68995;SDS011;56056;48.990;12.146;2023-10-19T06:00:02;1725.75;;;999.90;;
68995;SDS011;56056;48.990;12.146;2023-10-19T06:02:30;1784.20;;;999.90;;
68995;SDS011;56056;48.990;12.146;2023-10-19T06:04:56;1738.57;;;999.90;;
68995;SDS011;56056;48.990;12.146;2023-10-19T06:07:22;1806.45;;;999.90;;
68995;SDS011;56056;48.990;12.146;2023-10-19T06:09:50;1800.43;;;999.90;;
68995;SDS011;56056;48.990;12.146;2023-10-19T06:12:15;1786.35;;;999.90;;
68995;SDS011;56056;48.990;12.146;2023-10-19T06:14:41;1825.20;;;999.90;;
68995;SDS011;56056;48.990;12.146;2023-10-19T06:17:09;1635.20;;;999.90;;
68995;SDS011;56056;48.990;12.146;2023-10-19T06:19:35;1469.40;;;999.90;;
68995;SDS011;56056;48.990;12.146;2023-10-19T06:22:02;1580.10;;;999.90;;
68995;SDS011;56056;48.990;12.146;2023-10-19T06:24:29;1613.30;;;999.90;;
68995;SDS011;56056;48.990;12.146;2023-10-19T06:26:55;1765.93;;;999.90;;
68995;SDS011;56056;48.990;12.146;2023-10-19T06:29:21;1774.72;;;999.90;;
68995;SDS011;56056;48.990;12.146;2023-10-19T06:31:52;1820.30;;;999.90;;
68995;SDS011;56056;48.990;12.146;2023-10-19T06:34:19;1801.15;;;999.90;;
68995;SDS011;56056;48.990;12.146;2023-10-19T06:36:45;1824.30;;;999.90;;
68995;SDS011;56056;48.990;12.146;2023-10-19T06:39:11;1795.28;;;999.90;;
68995;SDS011;56056;48.990;12.146;2023-10-19T06:41:38;1904.20;;;999.90;;
68995;SDS011;56056;48.990;12.146;2023-10-19T06:44:04;1768.60;;;999.90;;
68995;SDS011;56056;48.990;12.146;2023-10-19T06:46:31;1578.60;;;999.90;;
68995;SDS011;56056;48.990;12.146;2023-10-19T06:48:57;1637.72;;;999.90;;
68995;SDS011;56056;48.990;12.146;2023-10-19T06:51:26;1658.32;;;999.90;;
68995;SDS011;56056;48.990;12.146;2023-10-19T06:53:52;1419.15;;;999.90;;
68995;SDS011;56056;48.990;12.146;2023-10-19T06:56:18;1516.25;;;999.90;;
68995;SDS011;56056;48.990;12.146;2023-10-19T06:58:44;1480.95;;;999.90;;
68995;SDS011;56056;48.990;12.146;2023-10-19T07:01:10;1494.13;;;999.90;;
68995;SDS011;56056;48.990;12.146;2023-10-19T07:03:36;1516.05;;;999.90;;
68995;SDS011;56056;48.990;12.146;2023-10-19T07:06:02;1320.85;;;999.90;;
68995;SDS011;56056;48.990;12.146;2023-10-19T07:08:30;1028.43;;;879.45;;
68995;SDS011;56056;48.990;12.146;2023-10-19T07:10:56;860.20;;;770.38;;
68995;SDS011;56056;48.990;12.146;2023-10-19T07:13:22;961.90;;;859.97;;
68995;SDS011;56056;48.990;12.146;2023-10-19T07:15:48;965.80;;;844.28;;
68995;SDS011;56056;48.990;12.146;2023-10-19T07:18:16;746.47;;;673.30;;
68995;SDS011;56056;48.990;12.146;2023-10-19T07:20:42;721.60;;;653.75;;
68995;SDS011;56056;48.990;12.146;2023-10-19T07:23:08;838.58;;;766.55;;
68995;SDS011;56056;48.990;12.146;2023-10-19T07:25:45;930.08;;;848.97;;
68995;SDS011;56056;48.990;12.146;2023-10-19T07:28:13;1123.35;;;999.90;;
68995;SDS011;56056;48.990;12.146;2023-10-19T07:30:40;1183.03;;;999.90;;
68995;SDS011;56056;48.990;12.146;2023-10-19T07:33:07;1203.22;;;999.90;;
68995;SDS011;56056;48.990;12.146;2023-10-19T07:35:35;1212.45;;;999.90;;
68995;SDS011;56056;48.990;12.146;2023-10-19T07:38:07;1181.22;;;999.90;;
68995;SDS011;56056;48.990;12.146;2023-10-19T07:40:33;1175.85;;;999.90;;
68995;SDS011;56056;48.990;12.146;2023-10-19T07:43:01;1150.38;;;999.90;;
68995;SDS011;56056;48.990;12.146;2023-10-19T07:45:28;1079.25;;;996.65;;
68995;SDS011;56056;48.990;12.146;2023-10-19T07:47:56;1058.88;;;980.50;;
68995;SDS011;56056;48.990;12.146;2023-10-19T07:50:23;1046.07;;;970.42;;
68995;SDS011;56056;48.990;12.146;2023-10-19T07:52:50;1043.40;;;969.45;;
68995;SDS011;56056;48.990;12.146;2023-10-19T07:55:17;990.38;;;924.42;;
68995;SDS011;56056;48.990;12.146;2023-10-19T07:57:48;1006.40;;;936.15;;
68995;SDS011;56056;48.990;12.146;2023-10-19T08:00:17;1035.10;;;962.10;;
68995;SDS011;56056;48.990;12.146;2023-10-19T08:02:44;1053.65;;;973.58;;
68995;SDS011;56056;48.990;12.146;2023-10-19T08:05:11;1067.25;;;985.65;;
68995;SDS011;56056;48.990;12.146;2023-10-19T08:07:37;1105.78;;;999.90;;
68995;SDS011;56056;48.990;12.146;2023-10-19T08:10:05;1117.28;;;999.90;;
68995;SDS011;56056;48.990;12.146;2023-10-19T08:12:34;1114.28;;;999.90;;
68995;SDS011;56056;48.990;12.146;2023-10-19T08:15:00;1141.30;;;999.90;;
68995;SDS011;56056;48.990;12.146;2023-10-19T08:17:28;1118.40;;;999.90;;
68995;SDS011;56056;48.990;12.146;2023-10-19T08:19:54;1161.45;;;999.90;;
68995;SDS011;56056;48.990;12.146;2023-10-19T08:22:22;1139.28;;;999.90;;
68995;SDS011;56056;48.990;12.146;2023-10-19T08:24:48;1122.60;;;999.90;;
68995;SDS011;56056;48.990;12.146;2023-10-19T08:27:15;1098.15;;;999.90;;
68995;SDS011;56056;48.990;12.146;2023-10-19T08:29:42;1059.28;;;979.33;;
68995;SDS011;56056;48.990;12.146;2023-10-19T08:32:08;1050.72;;;975.17;;
68995;SDS011;56056;48.990;12.146;2023-10-19T08:34:35;1027.30;;;952.40;;
68995;SDS011;56056;48.990;12.146;2023-10-19T08:37:02;1002.22;;;931.63;;
68995;SDS011;56056;48.990;12.146;2023-10-19T08:39:29;970.42;;;904.50;;
68995;SDS011;56056;48.990;12.146;2023-10-19T08:42:01;948.90;;;886.13;;
68995;SDS011;56056;48.990;12.146;2023-10-19T08:44:29;958.95;;;895.83;;
68995;SDS011;56056;48.990;12.146;2023-10-19T08:46:55;948.25;;;886.55;;
68995;SDS011;56056;48.990;12.146;2023-10-19T08:49:22;910.97;;;854.33;;
68995;SDS011;56056;48.990;12.146;2023-10-19T08:51:50;925.67;;;866.45;;
68995;SDS011;56056;48.990;12.146;2023-10-19T08:54:19;941.70;;;879.40;;
68995;SDS011;56056;48.990;12.146;2023-10-19T08:56:45;912.92;;;855.15;;
68995;SDS011;56056;48.990;12.146;2023-10-19T08:59:12;907.92;;;849.72;;
68995;SDS011;56056;48.990;12.146;2023-10-19T09:01:40;877.55;;;822.50;;
68995;SDS011;56056;48.990;12.146;2023-10-19T09:04:09;845.90;;;795.30;;
68995;SDS011;56056;48.990;12.146;2023-10-19T09:06:36;843.22;;;793.85;;
68995;SDS011;56056;48.990;12.146;2023-10-19T09:09:10;853.83;;;802.67;;
68995;SDS011;56056;48.990;12.146;2023-10-19T09:11:44;859.58;;;808.92;;
68995;SDS011;56056;48.990;12.146;2023-10-19T09:14:11;836.25;;;786.25;;
68995;SDS011;56056;48.990;12.146;2023-10-19T09:16:38;857.63;;;805.00;;
68995;SDS011;56056;48.990;12.146;2023-10-19T09:19:19;888.40;;;832.55;;
68995;SDS011;56056;48.990;12.146;2023-10-19T09:21:45;929.97;;;872.22;;
68995;SDS011;56056;48.990;12.146;2023-10-19T09:24:12;911.85;;;853.28;;
68995;SDS011;56056;48.990;12.146;2023-10-19T09:26:38;957.97;;;893.13;;
68995;SDS011;56056;48.990;12.146;2023-10-19T09:29:05;979.90;;;910.83;;
68995;SDS011;56056;48.990;12.146;2023-10-19T09:31:31;1005.28;;;934.28;;
68995;SDS011;56056;48.990;12.146;2023-10-19T09:33:56;1007.75;;;934.75;;
68995;SDS011;56056;48.990;12.146;2023-10-19T09:36:24;1009.20;;;936.25;;
68995;SDS011;56056;48.990;12.146;2023-10-19T09:38:54;1030.43;;;955.90;;
68995;SDS011;56056;48.990;12.146;2023-10-19T09:41:24;1016.78;;;940.00;;
68995;SDS011;56056;48.990;12.146;2023-10-19T09:43:54;1052.20;;;971.95;;
68995;SDS011;56056;48.990;12.146;2023-10-19T09:46:29;1045.32;;;964.22;;
68995;SDS011;56056;48.990;12.146;2023-10-19T09:48:57;1060.90;;;979.40;;
68995;SDS011;56056;48.990;12.146;2023-10-19T09:51:23;1080.35;;;995.05;;
68995;SDS011;56056;48.990;12.146;2023-10-19T09:53:51;1093.00;;;999.83;;
68995;SDS011;56056;48.990;12.146;2023-10-19T09:56:26;1101.35;;;999.90;;
68995;SDS011;56056;48.990;12.146;2023-10-19T09:58:59;1150.10;;;999.90;;
68995;SDS011;56056;48.990;12.146;2023-10-19T10:04:30;1150.45;;;999.90;;
68995;SDS011;56056;48.990;12.146;2023-10-19T10:06:57;1161.10;;;999.90;;
68995;SDS011;56056;48.990;12.146;2023-10-19T10:09:29;1196.45;;;999.90;;
68995;SDS011;56056;48.990;12.146;2023-10-19T10:11:56;1208.22;;;999.90;;
68995;SDS011;56056;48.990;12.146;2023-10-19T10:15:00;1209.60;;;999.90;;
68995;SDS011;56056;48.990;12.146;2023-10-19T10:17:27;1225.45;;;999.90;;
68995;SDS011;56056;48.990;12.146;2023-10-19T10:19:54;1254.38;;;999.90;;
68995;SDS011;56056;48.990;12.146;2023-10-19T10:22:42;1265.45;;;999.90;;
68995;SDS011;56056;48.990;12.146;2023-10-19T10:25:10;1246.82;;;999.90;;
68995;SDS011;56056;48.990;12.146;2023-10-19T10:27:55;1244.50;;;999.90;;
68995;SDS011;56056;48.990;12.146;2023-10-19T10:30:21;1221.75;;;999.90;;
68995;SDS011;56056;48.990;12.146;2023-10-19T10:32:48;1230.28;;;999.90;;
68995;SDS011;56056;48.990;12.146;2023-10-19T10:38:21;1210.70;;;999.90;;
68995;SDS011;56056;48.990;12.146;2023-10-19T10:40:47;1255.40;;;999.90;;
68995;SDS011;56056;48.990;12.146;2023-10-19T10:43:19;1236.55;;;999.90;;
68995;SDS011;56056;48.990;12.146;2023-10-19T10:45:46;1240.93;;;999.90;;
68995;SDS011;56056;48.990;12.146;2023-10-19T10:48:13;1234.95;;;999.90;;
68995;SDS011;56056;48.990;12.146;2023-10-19T10:50:39;1220.95;;;999.90;;
68995;SDS011;56056;48.990;12.146;2023-10-19T10:53:06;1275.03;;;999.90;;
68995;SDS011;56056;48.990;12.146;2023-10-19T10:55:32;1215.68;;;999.90;;
68995;SDS011;56056;48.990;12.146;2023-10-19T10:57:58;1257.05;;;999.90;;
68995;SDS011;56056;48.990;12.146;2023-10-19T11:00:26;1268.55;;;999.90;;
68995;SDS011;56056;48.990;12.146;2023-10-19T11:02:58;1192.45;;;999.90;;
68995;SDS011;56056;48.990;12.146;2023-10-19T11:05:26;1195.03;;;999.90;;
68995;SDS011;56056;48.990;12.146;2023-10-19T11:08:02;1202.97;;;999.90;;
68995;SDS011;56056;48.990;12.146;2023-10-19T11:10:32;1145.68;;;999.90;;
68995;SDS011;56056;48.990;12.146;2023-10-19T11:13:01;1105.43;;;996.17;;
68995;SDS011;56056;48.990;12.146;2023-10-19T11:15:29;1081.97;;;974.63;;
68995;SDS011;56056;48.990;12.146;2023-10-19T11:17:55;1112.50;;;999.65;;
68995;SDS011;56056;48.990;12.146;2023-10-19T11:20:22;1050.45;;;941.00;;
68995;SDS011;56056;48.990;12.146;2023-10-19T11:22:53;1069.35;;;962.42;;
68995;SDS011;56056;48.990;12.146;2023-10-19T11:25:27;1047.57;;;947.17;;
68995;SDS011;56056;48.990;12.146;2023-10-19T11:27:55;1065.18;;;959.00;;
68995;SDS011;56056;48.990;12.146;2023-10-19T11:30:24;1024.93;;;924.25;;
68995;SDS011;56056;48.990;12.146;2023-10-19T11:32:53;999.30;;;896.22;;
68995;SDS011;56056;48.990;12.146;2023-10-19T11:35:23;942.30;;;851.38;;
68995;SDS011;56056;48.990;12.146;2023-10-19T11:37:50;1040.88;;;926.15;;
68995;SDS011;56056;48.990;12.146;2023-10-19T11:40:20;1037.65;;;928.75;;
68995;SDS011;56056;48.990;12.146;2023-10-19T11:42:46;1022.53;;;911.78;;
68995;SDS011;56056;48.990;12.146;2023-10-19T11:45:12;1043.90;;;919.15;;
68995;SDS011;56056;48.990;12.146;2023-10-19T11:47:38;1056.32;;;920.83;;
68995;SDS011;56056;48.990;12.146;2023-10-19T11:50:06;1046.00;;;907.45;;
68995;SDS011;56056;48.990;12.146;2023-10-19T11:52:32;1082.93;;;936.17;;
68995;SDS011;56056;48.990;12.146;2023-10-19T11:54:58;1010.10;;;897.55;;
68995;SDS011;56056;48.990;12.146;2023-10-19T11:57:24;1086.80;;;922.28;;
68995;SDS011;56056;48.990;12.146;2023-10-19T11:59:50;926.20;;;828.45;;
68995;SDS011;56056;48.990;12.146;2023-10-19T12:02:18;1026.45;;;916.70;;
68995;SDS011;56056;48.990;12.146;2023-10-19T12:04:45;999.75;;;872.22;;
68995;SDS011;56056;48.990;12.146;2023-10-19T12:07:12;911.08;;;818.33;;
68995;SDS011;56056;48.990;12.146;2023-10-19T12:09:38;907.83;;;816.75;;
68995;SDS011;56056;48.990;12.146;2023-10-19T12:12:07;1051.72;;;933.60;;
68995;SDS011;56056;48.990;12.146;2023-10-19T12:14:34;1098.35;;;981.33;;
68995;SDS011;56056;48.990;12.146;2023-10-19T12:17:00;1057.68;;;952.13;;
68995;SDS011;56056;48.990;12.146;2023-10-19T12:19:27;1053.93;;;951.13;;
68995;SDS011;56056;48.990;12.146;2023-10-19T12:21:54;1182.07;;;999.90;;
68995;SDS011;56056;48.990;12.146;2023-10-19T12:24:22;1207.65;;;999.90;;
68995;SDS011;56056;48.990;12.146;2023-10-19T12:26:48;1194.65;;;999.90;;
68995;SDS011;56056;48.990;12.146;2023-10-19T12:29:15;1225.30;;;999.90;;
68995;SDS011;56056;48.990;12.146;2023-10-19T12:31:45;1235.70;;;999.90;;
68995;SDS011;56056;48.990;12.146;2023-10-19T12:34:11;1232.35;;;999.90;;
68995;SDS011;56056;48.990;12.146;2023-10-19T12:36:37;1238.63;;;999.90;;
68995;SDS011;56056;48.990;12.146;2023-10-19T12:39:04;1176.13;;;999.90;;
68995;SDS011;56056;48.990;12.146;2023-10-19T12:41:31;1131.63;;;999.90;;
68995;SDS011;56056;48.990;12.146;2023-10-19T12:43:58;1167.80;;;999.90;;
68995;SDS011;56056;48.990;12.146;2023-10-19T12:46:27;1197.07;;;999.90;;
68995;SDS011;56056;48.990;12.146;2023-10-19T12:48:55;1201.50;;;999.90;;
68995;SDS011;56056;48.990;12.146;2023-10-19T12:51:21;1220.43;;;999.90;;
68995;SDS011;56056;48.990;12.146;2023-10-19T12:53:50;1268.65;;;999.90;;
68995;SDS011;56056;48.990;12.146;2023-10-19T12:56:16;1199.50;;;999.90;;
68995;SDS011;56056;48.990;12.146;2023-10-19T12:58:44;1251.22;;;999.90;;
68995;SDS011;56056;48.990;12.146;2023-10-19T13:01:10;1243.60;;;999.90;;
68995;SDS011;56056;48.990;12.146;2023-10-19T13:03:43;1250.88;;;999.90;;
68995;SDS011;56056;48.990;12.146;2023-10-19T13:06:10;1233.30;;;999.90;;
68995;SDS011;56056;48.990;12.146;2023-10-19T13:08:37;1261.20;;;999.90;;
68995;SDS011;56056;48.990;12.146;2023-10-19T13:11:05;1227.40;;;999.90;;
68995;SDS011;56056;48.990;12.146;2023-10-19T13:13:32;1216.55;;;999.90;;
68995;SDS011;56056;48.990;12.146;2023-10-19T13:15:59;1224.68;;;999.90;;
68995;SDS011;56056;48.990;12.146;2023-10-19T13:18:26;1236.32;;;999.90;;
68995;SDS011;56056;48.990;12.146;2023-10-19T13:20:54;1224.55;;;999.90;;
68995;SDS011;56056;48.990;12.146;2023-10-19T13:23:22;1230.03;;;999.90;;
68995;SDS011;56056;48.990;12.146;2023-10-19T13:25:48;1237.95;;;999.90;;
68995;SDS011;56056;48.990;12.146;2023-10-19T13:28:19;1198.80;;;999.90;;
68995;SDS011;56056;48.990;12.146;2023-10-19T13:30:47;1114.88;;;998.60;;
68995;SDS011;56056;48.990;12.146;2023-10-19T13:33:18;1111.47;;;997.08;;
68995;SDS011;56056;48.990;12.146;2023-10-19T13:35:46;1031.43;;;927.78;;
68995;SDS011;56056;48.990;12.146;2023-10-19T13:38:13;1003.15;;;904.45;;
68995;SDS011;56056;48.990;12.146;2023-10-19T13:40:41;1037.50;;;929.50;;
68995;SDS011;56056;48.990;12.146;2023-10-19T13:43:08;1006.13;;;901.00;;
68995;SDS011;56056;48.990;12.146;2023-10-19T13:45:38;1131.82;;;999.90;;
68995;SDS011;56056;48.990;12.146;2023-10-19T13:48:07;1019.53;;;912.45;;
68995;SDS011;56056;48.990;12.146;2023-10-19T13:50:40;1074.50;;;944.85;;
68995;SDS011;56056;48.990;12.146;2023-10-19T13:53:08;1117.85;;;972.53;;
68995;SDS011;56056;48.990;12.146;2023-10-19T13:55:35;1137.28;;;974.53;;